Historyczne dane pomiarowe

Dodano dane terminowe – wersja testowa.

Dane z okresu 1951-2019

Wersja bazy: 1.34 [2019-03-16, lista zmian], aktualizacja planowana na 2019-04-15

Dane meteo z obszaru Polski uzyskane na podstawie danych udostępnionych przez Instytut Meteorologii i Gospodarki Wodnej – Państwowy Instytut Badawczy.

 

Wybierz Datę:    

       

TemperaturaWilgotnośćWiatrCiśnienieOpadyŚniegCzas trwania zjawisk
 Stacja t tx tn tng RH VA  wxwx mslp ppp RRR   cm mm wxwxwxwxwxwxwx
1991-03-15 8.9 14.4 2.9 0.1 74.5- 6.0 2.3---- 0.9------------
1991-03-14 5.2 9.3 1.4 0.4 90.5- 6.3 3.7---- 0.0------------
1991-03-13 3.8 5.8 3.0 1.1 98.3- 8.0 2.3---- 0.6------------
1991-03-12 3.7 5.8 0.3 0.0 99.3- 8.0 2.7---- 0.2------------
1991-03-11 0.3 1.0 -0.6 -1.1 89.5- 8.0 3.7---- 0.0------------
1991-03-10 0.9 3.1 -0.2 -0.7 80.8- 5.3 7.0---- 0.0------------
1991-03-09 -0.4 1.1 -1.7 -2.6 83.0- 8.0 10.0---- 0.0------------
1991-03-08 -0.2 2.5 -3.9 -5.4 63.0- 5.0 12.3---- 0.0------------
1991-03-07 -0.2 2.0 -2.1 -3.8 71.5- 3.0 10.0---- 0.0------------
1991-03-06 0.0 3.5 -3.5 -9.9 88.8- 4.3 3.0---- 0.0------------
1991-03-05 0.7 3.5 0.1 -1.0 94.8- 7.0 2.0---- 0.3------------
1991-03-04 0.1 3.5 -2.3 -4.5 92.8- 8.0 4.3---- 4.3------------
1991-03-03 -1.5 1.9 -4.6 -6.7 77.0- 1.7 6.0---- 0.0------------
1991-03-02 -1.1 0.1 -1.6 -3.1 73.8- 8.0 5.7---- 0.0------------
1991-03-01 -0.4 1.5 -0.9 -2.0 81.3- 8.0 3.3---- 0.0-- 1---------
1991-02-28 0.2 1.5 -1.7 -2.2 88.8- 8.0 2.0---- 0.0-- 3---------
1991-02-27 -1.1 0.7 -1.6 -2.0 87.0- 8.0 8.7---- 0.2-- 2---------
1991-02-26 0.8 4.4 -0.1 -0.5 90.8- 7.3 8.7---- 1.5------------
1991-02-25 4.1 7.0 2.9 0.0 86.5- 7.0 4.0---- 2.0-- 10---------
1991-02-24 2.7 4.1 -0.1 -1.0 98.8- 7.3 6.7---- 0.2-- 25---------
1991-02-23 -0.3 4.8 -4.1 -5.4 84.8- 5.3 4.3---- 1.9-- 28---------
1991-02-22 -0.5 3.1 -2.7 -5.6 82.5- 6.7 4.0---- 0.0-- 29---------
1991-02-21 -3.4 0.6 -8.0-14.7 94.8- 8.0 1.7---- 0.0-- 30---------
1991-02-20 -2.1 1.1 -5.2 -7.6 81.3- 5.7 4.0---- 0.0-- 31---------
1991-02-19 -4.5 -1.9 -7.7-11.8 76.3- 6.0 5.3---- 0.0-- 32---------
1991-02-18 -4.6 -2.2 -6.8-11.6 84.0- 5.7 8.7---- 0.2-- 31---------
1991-02-17 -3.7 -2.0-10.2-17.2 89.5- 7.7 5.7---- 1.6-- 26---------
1991-02-16 -6.7 -3.0 -8.6-12.9 86.0- 7.3 2.0---- 0.3-- 25---------
1991-02-15 -5.6 -3.9 -7.1-10.1 80.0- 8.0 10.0---- 0.4-- 23---------
1991-02-14 -3.7 -2.2 -4.8 -4.5 90.8- 8.0 14.0---- 1.7-- 20---------
1991-02-13 -4.5 -3.0 -6.4-16.8 93.3- 8.0 6.3---- 5.5-- 12---------
1991-02-12 -5.2 -0.2 -9.1-14.7 88.5- 4.7 3.0---- 0.7-- 10---------
1991-02-11 -3.0 -0.5 -6.6 -5.6 96.8- 8.0 4.0---- 1.7-- 6---------
1991-02-10 -5.6 -4.1 -6.8 -7.2 88.8- 8.0 4.0---- 0.8-- 5---------
1991-02-09 -6.4 -5.6 -8.1 -9.2 85.0- 8.0 7.3---- 0.1-- 5---------
1991-02-08 -8.7 -6.3-12.0-13.3 84.0- 6.3 10.3---- 0.1-- 5---------
1991-02-07-11.1 -7.3-15.0-15.9 81.5- 3.0 6.0---- 0.2-- 4---------
1991-02-06-12.8 -9.7-16.2-18.5 78.3- 1.3 3.7---- 0.0-- 4---------
1991-02-05-11.1 -8.5-13.4-15.9 70.0- 4.3 6.7---- 0.0-- 4---------
1991-02-04 -7.4 -5.5 -8.5-10.4 77.5- 7.0 6.0---- 0.2-- 3---------
1991-02-03 -6.5 -4.9 -8.5-12.7 76.3- 7.0 7.0---- 0.0-- 3---------
1991-02-02-10.2 -6.3-13.9-19.8 65.3- 4.0 2.3---- 0.0-- 3---------
1991-02-01-14.2-11.0-18.3-22.8 68.0- 5.0 1.0---- 0.0-- 3---------
1991-01-31-16.0-11.4-19.6-23.5 68.5- 1.7 1.3---- 0.0-- 3---------
1991-01-30-12.6 -1.2-16.4-18.4 70.5- 1.0 4.7---- 0.0-- 3---------
1991-01-29 -0.6 0.8 -1.9 -4.5 84.3- 7.0 4.7---- 0.4-- 3---------
1991-01-28 -1.2 0.6 -3.7 0.0 94.8- 8.0 6.3---- 1.3------------
1991-01-27 -1.3 1.5 -3.1 -5.1 84.3- 6.0 1.0---- 0.0------------
1991-01-26 2.5 4.6 0.6 -1.0 87.3- 6.0 6.3---- 0.0------------
1991-01-25 -1.1 0.8 -2.1 -4.5 94.5- 7.3 15.3---- 0.1------------
1991-01-24 0.8 2.5 -0.3 -2.1 86.3- 3.7 10.3---- 0.0------------
1991-01-23 -0.8 0.6 -3.2 -5.2 93.0- 8.0 4.3---- 0.4-- 1---------
1991-01-22 -0.9 0.3 -1.6 -1.7 98.3- 8.0 3.0---- 0.0-- 1---------
1991-01-21 -3.4 -0.9 -8.0 -8.6 96.3- 8.0 2.0---- 1.1-- 1---------
1991-01-20 -7.0 -3.8 -8.3 -9.2 91.8- 7.7 1.0---- 0.0-- 1---------
1991-01-19 -4.0 -0.9 -6.2-10.3 85.8- 8.0 1.0---- 0.0-- 1---------
1991-01-18 -2.4 2.0 -6.9 -8.4 88.5- 3.3 1.0---- 0.0-- 1---------
1991-01-17 -0.9 0.3 -2.3 -5.6 91.5- 4.7 7.7---- 0.0-- 1---------
1991-01-16 -4.3 -1.3 -7.5 -8.2 93.5- 8.0 4.0---- 0.0-- 1---------
1991-01-15 -2.9 0.3 -5.3 -9.6 87.8- 4.3 2.0---- 0.0-- 1---------
553.0 ms

 

Źródłem pochodzenia danych jest Instytut Meteorologii i Gospodarki Wodnej – Państwowy Instytut Badawczy. Dane Instytutu Meteorologii i Gospodarki Wodnej – Państwowego Instytutu Badawczego zostały przetworzone.

Dane źródłowe można odnaleźć na stronie https://dane.imgw.pl